Time;durP1;ratioP1;P1;durP2;ratioP2;P2;SDS_P1;SDS_P2;PMS_P1;PMS_P2;Temp;Humidity;BMP_temperature;BMP_pressure;BME280_temperature;BME280_humidity;BME280_pressure;Samples;Min_cycle;Max_cycle;Signal;HPM_P1;HPM_P2
2021/09/25 00:00:24;;;;;;;;;;;;;;;;;;1026846;28;947;-22
2021/09/25 00:00:54;;;;;;;;;;;;;;;;;;1026813;28;1117;-21
2021/09/25 00:01:25;;;;;;;;;;;;;;;;;;1026683;28;1078;-21
2021/09/25 00:01:56;;;;;;;;;;;;;;;;;;1026800;28;949;-22
2021/09/25 00:02:26;;;;;;;;;;;;;;;;;;1029791;28;1169;-21
2021/09/25 00:02:57;;;;;;;;;;;;;;;;;;1026162;28;1039;-21
2021/09/25 00:03:28;;;;;;;;;;;;;;;;;;1025992;28;1018;-21
2021/09/25 00:03:58;;;;;;;;;;;;;;;;;;1025974;28;969;-21
2021/09/25 00:04:29;;;;;;;;;;;;;;;;;;1026003;28;978;-21
2021/09/25 00:04:59;;;;;;;;;;;;;;;;;;1026711;28;887;-22
2021/09/25 00:05:30;;;;;;;;;;;;;;;;;;1026746;28;1139;-25
2021/09/25 00:06:01;;;;;;;;;;;;;;;;;;1026728;28;942;-21
2021/09/25 00:06:31;;;;;;;;;;;;;;;;;;1026681;28;968;-22
2021/09/25 00:07:02;;;;;;;;;;;;;;;;;;1026690;28;1210;-21
2021/09/25 00:07:33;;;;;;;;;;;;;;;;;;1026761;28;846;-21
2021/09/25 00:08:03;;;;;;;;;;;;;;;;;;1030075;28;1126;-22
2021/09/25 00:08:34;;;;;;;;;;;;;;;;;;1025576;28;1914;-22
2021/09/25 00:09:04;;;;;;;;;;;;;;;;;;1026120;28;994;-23
2021/09/25 00:09:35;;;;;;;;;;;;;;;;;;1026176;28;886;-21
2021/09/25 00:10:05;;;;;;;;;;;;;;;;;;1026366;28;1070;-22
2021/09/25 00:10:36;;;;;;;;;;;;;;;;;;1022755;28;938;-22
2021/09/25 00:11:07;;;;;;;;;;;;;;;;;;1022821;28;938;-21
2021/09/25 00:11:37;;;;;;;;;;;;;;;;;;1024652;28;1167;-22
2021/09/25 00:12:10;;;;;;;;;;;;;;;;;;1026199;28;929;-22
2021/09/25 00:12:40;;;;;;;;;;;;;;;;;;1026006;28;1370;-22
2021/09/25 00:13:10;;;;;;;;;;;;;;;;;;1022582;28;909;-21
2021/09/25 00:13:41;;;;;;;;;;;;;;;;;;1026308;28;953;-22
2021/09/25 00:14:11;;;;;;;;;;;;;;;;;;1025966;28;1736;-21
2021/09/25 00:14:42;;;;;;;;;;;;;;;;;;1026410;28;1145;-21
2021/09/25 00:15:13;;;;;;;;;;;;;;;;;;1026829;28;968;-22
2021/09/25 00:15:43;;;;;;;;;;;;;;;;;;1026685;28;1041;-22
2021/09/25 00:16:13;;;;;;;;;;;;;;;;;;1026756;28;1072;-22
2021/09/25 00:16:44;;;;;;;;;;;;;;;;;;1026826;28;641;-22
2021/09/25 00:17:14;;;;;;;;;;;;;;;;;;1026802;28;1137;-22
2021/09/25 00:17:47;;;;;;;;;;;;;;;;;;1026831;28;950;-22
2021/09/25 00:18:18;;;;;;;;;;;;;;;;;;1026595;28;1085;-21
2021/09/25 00:18:48;;;;;;;;;;;;;;;;;;1026807;28;993;-22
2021/09/25 00:19:18;;;;;;;;;;;;;;;;;;1030391;28;632;-24
2021/09/25 00:19:49;;;;;;;;;;;;;;;;;;1030440;28;1019;-26
2021/09/25 00:20:19;;;;;;;;;;;;;;;;;;1025316;28;1135;-22
2021/09/25 00:20:50;;;;;;;;;;;;;;;;;;1025873;28;1013;-22
2021/09/25 00:21:20;;;;;;;;;;;;;;;;;;1026120;28;1068;-21
2021/09/25 00:21:51;;;;;;;;;;;;;;;;;;1025820;28;1613;-22
2021/09/25 00:22:21;;;;;;;;;;;;;;;;;;1029734;28;1046;-22
2021/09/25 00:22:52;;;;;;;;;;;;;;;;;;1030076;28;1099;-22
2021/09/25 00:23:22;;;;;;;;;;;;;;;;;;1029912;28;1030;-22
2021/09/25 00:23:53;;;;;;;;;;;;;;;;;;1030199;28;941;-22
2021/09/25 00:24:24;;;;;;;;;;;;;;;;;;1023755;28;1292;-25
2021/09/25 00:24:55;;;;;;;;;;;;;;;;;;1025935;28;1013;-22
2021/09/25 00:25:25;;;;;;;;;;;;;;;;;;1033726;28;1150;-25
2021/09/25 00:25:56;;;;;;;;;;;;;;;;;;1034113;28;1086;-21
2021/09/25 00:26:27;;;;;;;;;;;;;;;;;;1038143;28;965;-22
2021/09/25 00:26:57;;;;;;;;;;;;;;;;;;1029913;28;1141;-22
2021/09/25 00:27:28;;;;;;;;;;;;;;;;;;1021627;28;2720;-22
2021/09/25 00:27:59;;;;;;;;;;;;;;;;;;1022119;29;951;-21
2021/09/25 00:28:29;;;;;;;;;;;;;;;;;;1022069;29;1112;-23
2021/09/25 00:29:00;;;;;;;;;;;;;;;;;;1030270;28;1910;-24
2021/09/25 00:29:30;;;;;;;;;;;;;;;;;;1025958;28;1341;-25
2021/09/25 00:30:01;;;;;;;;;;;;;;;;;;1024021;28;1278;-25
2021/09/25 00:30:32;;;;;;;;;;;;;;;;;;1021892;29;1348;-22
2021/09/25 00:31:02;;;;;;;;;;;;;;;;;;1021967;29;1034;-22
2021/09/25 00:31:33;;;;;;;;;;;;;;;;;;1022518;28;875;-22
2021/09/25 00:32:03;;;;;;;;;;;;;;;;;;1022841;28;839;-22
2021/09/25 00:32:34;;;;;;;;;;;;;;;;;;1022402;28;882;-21
2021/09/25 00:33:04;;;;;;;;;;;;;;;;;;1022871;28;846;-23
2021/09/25 00:33:34;;;;;;;;;;;;;;;;;;1022516;28;1046;-22
2021/09/25 00:34:05;;;;;;;;;;;;;;;;;;1022678;28;908;-22
2021/09/25 00:34:35;;;;;;;;;;;;;;;;;;1022375;28;1044;-22
2021/09/25 00:35:07;;;;;;;;;;;;;;;;;;1029808;28;999;-22
2021/09/25 00:35:38;;;;;;;;;;;;;;;;;;1025781;28;1043;-21
2021/09/25 00:36:08;;;;;;;;;;;;;;;;;;1027268;28;3727;-27
2021/09/25 00:36:39;;;;;;;;;;;;;;;;;;1025435;28;1093;-24
2021/09/25 00:37:09;;;;;;;;;;;;;;;;;;1021860;29;1092;-23
2021/09/25 00:37:40;;;;;;;;;;;;;;;;;;1021836;29;994;-24
2021/09/25 00:38:10;;;;;;;;;;;;;;;;;;1021933;28;1045;-22
2021/09/25 00:38:41;;;;;;;;;;;;;;;;;;1026467;28;3603;-21
2021/09/25 00:39:12;;;;;;;;;;;;;;;;;;1029815;28;979;-24
2021/09/25 00:39:42;;;;;;;;;;;;;;;;;;1025980;28;1029;-22
2021/09/25 00:40:15;;;;;;;;;;;;;;;;;;1025779;28;1599;-21
2021/09/25 00:40:45;;;;;;;;;;;;;;;;;;1017821;29;1068;-22
2021/09/25 00:41:16;;;;;;;;;;;;;;;;;;1021736;29;1212;-22
2021/09/25 00:41:46;;;;;;;;;;;;;;;;;;1021910;29;1085;-22
2021/09/25 00:42:17;;;;;;;;;;;;;;;;;;1022206;28;1012;-22
2021/09/25 00:42:48;;;;;;;;;;;;;;;;;;1034195;28;1116;-21
2021/09/25 00:43:19;;;;;;;;;;;;;;;;;;1026604;28;911;-22
2021/09/25 00:43:49;;;;;;;;;;;;;;;;;;1028009;28;1427;-22
2021/09/25 00:44:21;;;;;;;;;;;;;;;;;;1033757;28;1087;-22
2021/09/25 00:44:51;;;;;;;;;;;;;;;;;;1032316;28;2318;-22
2021/09/25 00:45:23;;;;;;;;;;;;;;;;;;1030286;28;940;-22
2021/09/25 00:45:53;;;;;;;;;;;;;;;;;;1033406;28;941;-23
2021/09/25 00:46:24;;;;;;;;;;;;;;;;;;1026299;28;950;-23
2021/09/25 00:46:56;;;;;;;;;;;;;;;;;;1029903;28;1038;-22
2021/09/25 00:47:26;;;;;;;;;;;;;;;;;;1030682;28;1429;-21
2021/09/25 00:47:57;;;;;;;;;;;;;;;;;;1034107;28;1013;-21
2021/09/25 00:48:27;;;;;;;;;;;;;;;;;;1033806;28;956;-22
2021/09/25 00:48:58;;;;;;;;;;;;;;;;;;1030695;28;1898;-23
2021/09/25 00:49:29;;;;;;;;;;;;;;;;;;1025589;28;1381;-22
2021/09/25 00:50:00;;;;;;;;;;;;;;;;;;1025848;28;1105;-22
2021/09/25 00:50:30;;;;;;;;;;;;;;;;;;1025805;28;1014;-23
2021/09/25 00:51:01;;;;;;;;;;;;;;;;;;1025794;28;1585;-22
2021/09/25 00:51:32;;;;;;;;;;;;;;;;;;1025982;28;1104;-21
2021/09/25 00:52:02;;;;;;;;;;;;;;;;;;1030870;28;933;-26
2021/09/25 00:52:33;;;;;;;;;;;;;;;;;;1030477;28;1004;-23
2021/09/25 00:53:03;;;;;;;;;;;;;;;;;;1038053;28;1001;-21
2021/09/25 00:53:34;;;;;;;;;;;;;;;;;;1037901;28;1079;-24
2021/09/25 00:54:04;;;;;;;;;;;;;;;;;;1038203;28;1089;-22
2021/09/25 00:54:35;;;;;;;;;;;;;;;;;;1037919;28;873;-23
2021/09/25 00:55:08;;;;;;;;;;;;;;;;;;1029906;28;1028;-21
2021/09/25 00:55:38;;;;;;;;;;;;;;;;;;1022102;29;998;-22
2021/09/25 00:56:10;;;;;;;;;;;;;;;;;;1022403;29;1378;-22
2021/09/25 00:56:41;;;;;;;;;;;;;;;;;;1023052;28;1167;-22
2021/09/25 00:57:12;;;;;;;;;;;;;;;;;;1027357;28;1185;-22
2021/09/25 00:57:42;;;;;;;;;;;;;;;;;;1031284;28;1188;-21
2021/09/25 00:58:13;;;;;;;;;;;;;;;;;;1031569;28;1016;-21
2021/09/25 00:58:43;;;;;;;;;;;;;;;;;;1031038;28;909;-22
2021/09/25 00:59:14;;;;;;;;;;;;;;;;;;1031228;28;969;-24
2021/09/25 00:59:45;;;;;;;;;;;;;;;;;;1026676;28;1039;-22
2021/09/25 01:00:16;;;;;;;;;;;;;;;;;;1027013;28;958;-22
2021/09/25 01:00:46;;;;;;;;;;;;;;;;;;1030609;28;1180;-22
2021/09/25 01:01:17;;;;;;;;;;;;;;;;;;1026820;28;1422;-21
2021/09/25 01:01:47;;;;;;;;;;;;;;;;;;1026423;28;1086;-23
2021/09/25 01:02:18;;;;;;;;;;;;;;;;;;1026891;28;1103;-22
2021/09/25 01:02:48;;;;;;;;;;;;;;;;;;1026459;28;991;-23
2021/09/25 01:03:19;;;;;;;;;;;;;;;;;;1031241;28;993;-22
2021/09/25 01:03:49;;;;;;;;;;;;;;;;;;1031427;28;1000;-21
2021/09/25 01:04:19;;;;;;;;;;;;;;;;;;1031389;28;1011;-23
2021/09/25 01:04:50;;;;;;;;;;;;;;;;;;1031214;28;948;-22
2021/09/25 01:05:21;;;;;;;;;;;;;;;;;;1031523;28;921;-24
2021/09/25 01:05:51;;;;;;;;;;;;;;;;;;1031262;28;1012;-24
2021/09/25 01:06:22;;;;;;;;;;;;;;;;;;1039059;28;1035;-21
2021/09/25 01:06:52;;;;;;;;;;;;;;;;;;1038572;28;1109;-24
2021/09/25 01:07:23;;;;;;;;;;;;;;;;;;1030696;28;1087;-21
2021/09/25 01:07:54;;;;;;;;;;;;;;;;;;1030637;28;1126;-24
2021/09/25 01:08:25;;;;;;;;;;;;;;;;;;1025118;28;1351;-22
2021/09/25 01:08:55;;;;;;;;;;;;;;;;;;1022728;28;1915;-23
2021/09/25 01:09:26;;;;;;;;;;;;;;;;;;1026650;28;977;-24
2021/09/25 01:09:56;;;;;;;;;;;;;;;;;;1026732;28;900;-22
2021/09/25 01:10:27;;;;;;;;;;;;;;;;;;1026684;28;873;-21
2021/09/25 01:10:57;;;;;;;;;;;;;;;;;;1023332;29;871;-23
2021/09/25 01:11:27;;;;;;;;;;;;;;;;;;1023450;28;894;-21
2021/09/25 01:11:58;;;;;;;;;;;;;;;;;;1025066;28;1072;-23
2021/09/25 01:12:29;;;;;;;;;;;;;;;;;;1026349;28;1046;-21
2021/09/25 01:13:00;;;;;;;;;;;;;;;;;;1026807;28;1041;-21
2021/09/25 01:13:30;;;;;;;;;;;;;;;;;;1022477;29;1202;-22
2021/09/25 01:14:01;;;;;;;;;;;;;;;;;;1022914;28;895;-25
2021/09/25 01:14:31;;;;;;;;;;;;;;;;;;1026501;28;862;-22
2021/09/25 01:15:03;;;;;;;;;;;;;;;;;;1026453;28;1129;-22
2021/09/25 01:15:34;;;;;;;;;;;;;;;;;;1030776;28;958;-22
2021/09/25 01:16:05;;;;;;;;;;;;;;;;;;1030688;28;1113;-26
2021/09/25 01:16:36;;;;;;;;;;;;;;;;;;1025799;28;1088;-22
2021/09/25 01:17:08;;;;;;;;;;;;;;;;;;1030483;28;1009;-22
2021/09/25 01:17:39;;;;;;;;;;;;;;;;;;1030509;28;892;-22
2021/09/25 01:18:09;;;;;;;;;;;;;;;;;;1031297;28;937;-21
2021/09/25 01:18:39;;;;;;;;;;;;;;;;;;1034202;28;1140;-23
2021/09/25 01:19:10;;;;;;;;;;;;;;;;;;1027390;28;949;-22
2021/09/25 01:19:41;;;;;;;;;;;;;;;;;;1027259;28;926;-22
2021/09/25 01:20:12;;;;;;;;;;;;;;;;;;1027119;28;1465;-23
2021/09/25 01:20:44;;;;;;;;;;;;;;;;;;1030610;28;1123;-21
2021/09/25 01:21:15;;;;;;;;;;;;;;;;;;1030578;28;1118;-22
2021/09/25 01:21:46;;;;;;;;;;;;;;;;;;1030473;28;910;-21
2021/09/25 01:22:17;;;;;;;;;;;;;;;;;;1026565;28;1018;-22
2021/09/25 01:22:48;;;;;;;;;;;;;;;;;;1025927;28;1432;-22
2021/09/25 01:23:19;;;;;;;;;;;;;;;;;;1017627;29;2554;-22
2021/09/25 01:23:49;;;;;;;;;;;;;;;;;;1014421;29;1122;-22
2021/09/25 01:24:20;;;;;;;;;;;;;;;;;;1013151;29;1245;-22
2021/09/25 01:24:50;;;;;;;;;;;;;;;;;;1014569;29;911;-21
2021/09/25 01:25:20;;;;;;;;;;;;;;;;;;1026472;28;1415;-21
2021/09/25 01:25:51;;;;;;;;;;;;;;;;;;1026314;28;1123;-22
2021/09/25 01:26:24;;;;;;;;;;;;;;;;;;1025704;28;1463;-22
2021/09/25 01:26:55;;;;;;;;;;;;;;;;;;1027074;28;1265;-22
2021/09/25 01:27:26;;;;;;;;;;;;;;;;;;1026511;28;1080;-25
2021/09/25 01:27:57;;;;;;;;;;;;;;;;;;1026729;28;973;-22
2021/09/25 01:28:28;;;;;;;;;;;;;;;;;;1026592;28;1054;-25
2021/09/25 01:28:59;;;;;;;;;;;;;;;;;;1026710;28;1906;-21
2021/09/25 01:29:29;;;;;;;;;;;;;;;;;;1027121;28;945;-22
2021/09/25 01:30:01;;;;;;;;;;;;;;;;;;1027426;28;965;-24
2021/09/25 01:30:33;;;;;;;;;;;;;;;;;;1027137;28;901;-22
2021/09/25 01:31:04;;;;;;;;;;;;;;;;;;1027329;28;892;-24
2021/09/25 01:31:35;;;;;;;;;;;;;;;;;;1027316;28;1020;-21
2021/09/25 01:32:05;;;;;;;;;;;;;;;;;;1026269;28;1015;-22
2021/09/25 01:32:36;;;;;;;;;;;;;;;;;;1026821;28;988;-21
2021/09/25 01:33:06;;;;;;;;;;;;;;;;;;1022524;29;1067;-23
2021/09/25 01:33:44;;;;;;;;;;;;;;;;;;1022593;28;1002;-22
2021/09/25 01:34:15;;;;;;;;;;;;;;;;;;1026600;28;1202;-21
2021/09/25 01:34:46;;;;;;;;;;;;;;;;;;1026540;28;1095;-22
2021/09/25 01:35:17;;;;;;;;;;;;;;;;;;1026631;28;1072;-23
2021/09/25 01:35:48;;;;;;;;;;;;;;;;;;1026419;28;1217;-22
2021/09/25 01:36:19;;;;;;;;;;;;;;;;;;1022324;29;3588;-22
2021/09/25 01:36:50;;;;;;;;;;;;;;;;;;1022647;29;875;-21
2021/09/25 01:37:20;;;;;;;;;;;;;;;;;;1022434;29;1116;-22
2021/09/25 01:37:52;;;;;;;;;;;;;;;;;;1022662;28;1093;-22
2021/09/25 01:38:23;;;;;;;;;;;;;;;;;;1026933;28;3710;-21
2021/09/25 01:38:53;;;;;;;;;;;;;;;;;;1030233;28;906;-22
2021/09/25 01:39:23;;;;;;;;;;;;;;;;;;1027406;28;886;-22
2021/09/25 01:39:54;;;;;;;;;;;;;;;;;;1027176;28;1369;-22
2021/09/25 01:40:24;;;;;;;;;;;;;;;;;;1027353;28;957;-22
2021/09/25 01:40:55;;;;;;;;;;;;;;;;;;1027431;28;938;-22
2021/09/25 01:41:26;;;;;;;;;;;;;;;;;;1030315;28;1084;-22
2021/09/25 01:41:57;;;;;;;;;;;;;;;;;;1030689;28;1009;-23
2021/09/25 01:42:27;;;;;;;;;;;;;;;;;;1030396;28;986;-22
2021/09/25 01:42:58;;;;;;;;;;;;;;;;;;1030692;28;941;-21
2021/09/25 01:43:29;;;;;;;;;;;;;;;;;;1027346;28;958;-22
2021/09/25 01:43:59;;;;;;;;;;;;;;;;;;1030415;28;1431;-24
2021/09/25 01:44:30;;;;;;;;;;;;;;;;;;1031017;28;945;-22
2021/09/25 01:45:00;;;;;;;;;;;;;;;;;;1028559;28;2279;-22
2021/09/25 01:45:31;;;;;;;;;;;;;;;;;;1027085;28;905;-22
2021/09/25 01:46:02;;;;;;;;;;;;;;;;;;1027455;28;1066;-21
2021/09/25 01:46:32;;;;;;;;;;;;;;;;;;1027032;28;962;-23
2021/09/25 01:47:03;;;;;;;;;;;;;;;;;;1027407;28;1054;-22
2021/09/25 01:47:33;;;;;;;;;;;;;;;;;;1028457;28;1401;-23
2021/09/25 01:48:04;;;;;;;;;;;;;;;;;;1030927;28;913;-23
2021/09/25 01:48:34;;;;;;;;;;;;;;;;;;1030807;28;953;-23
2021/09/25 01:49:05;;;;;;;;;;;;;;;;;;1030897;28;1911;-22
2021/09/25 01:49:35;;;;;;;;;;;;;;;;;;1031312;28;1112;-23
2021/09/25 01:50:07;;;;;;;;;;;;;;;;;;1031330;28;945;-22
2021/09/25 01:50:38;;;;;;;;;;;;;;;;;;1031145;28;1005;-21
2021/09/25 01:51:08;;;;;;;;;;;;;;;;;;1031284;28;1043;-23
2021/09/25 01:51:39;;;;;;;;;;;;;;;;;;1031220;28;1145;-24
2021/09/25 01:52:09;;;;;;;;;;;;;;;;;;1031410;28;992;-23
2021/09/25 01:52:39;;;;;;;;;;;;;;;;;;1031227;28;950;-22
2021/09/25 01:53:10;;;;;;;;;;;;;;;;;;1030920;28;1912;-21
2021/09/25 01:53:40;;;;;;;;;;;;;;;;;;1031132;28;1120;-22
2021/09/25 01:54:11;;;;;;;;;;;;;;;;;;1031150;28;965;-24
2021/09/25 01:54:41;;;;;;;;;;;;;;;;;;1031252;28;811;-21
2021/09/25 01:55:12;;;;;;;;;;;;;;;;;;1031280;28;1035;-22
2021/09/25 01:55:43;;;;;;;;;;;;;;;;;;1031183;28;1043;-22
2021/09/25 01:56:14;;;;;;;;;;;;;;;;;;1031274;28;1022;-23
2021/09/25 01:56:45;;;;;;;;;;;;;;;;;;1031336;28;834;-22
2021/09/25 01:57:16;;;;;;;;;;;;;;;;;;1030895;28;1417;-22
2021/09/25 01:57:47;;;;;;;;;;;;;;;;;;1038520;28;1005;-23
2021/09/25 01:58:17;;;;;;;;;;;;;;;;;;1030328;28;1029;-22
2021/09/25 01:58:48;;;;;;;;;;;;;;;;;;1030428;28;1066;-22
2021/09/25 01:59:19;;;;;;;;;;;;;;;;;;1022390;29;942;-22
2021/09/25 01:59:49;;;;;;;;;;;;;;;;;;1018566;28;967;-25
2021/09/25 02:00:20;;;;;;;;;;;;;;;;;;1026643;28;870;-22
2021/09/25 02:00:50;;;;;;;;;;;;;;;;;;1026466;28;1190;-22
2021/09/25 02:01:20;;;;;;;;;;;;;;;;;;1031314;28;917;-22
2021/09/25 02:01:51;;;;;;;;;;;;;;;;;;1042723;28;1182;-22
2021/09/25 02:02:22;;;;;;;;;;;;;;;;;;1042793;28;1167;-24
2021/09/25 02:02:53;;;;;;;;;;;;;;;;;;1038565;28;865;-22
2021/09/25 02:03:23;;;;;;;;;;;;;;;;;;1038325;28;898;-22
2021/09/25 02:03:54;;;;;;;;;;;;;;;;;;1030776;28;1349;-23
2021/09/25 02:04:25;;;;;;;;;;;;;;;;;;1030344;28;1010;-23
2021/09/25 02:04:56;;;;;;;;;;;;;;;;;;1027814;28;1122;-22
2021/09/25 02:05:27;;;;;;;;;;;;;;;;;;1026141;28;1008;-21
2021/09/25 02:05:57;;;;;;;;;;;;;;;;;;1018606;29;1037;-21
2021/09/25 02:06:27;;;;;;;;;;;;;;;;;;1018296;29;1361;-21
2021/09/25 02:06:58;;;;;;;;;;;;;;;;;;1018427;29;1073;-22
2021/09/25 02:07:29;;;;;;;;;;;;;;;;;;1018398;29;1076;-22
2021/09/25 02:07:59;;;;;;;;;;;;;;;;;;1023015;29;1593;-22
2021/09/25 02:08:30;;;;;;;;;;;;;;;;;;1022859;28;1008;-23
2021/09/25 02:09:01;;;;;;;;;;;;;;;;;;1026516;28;1919;-22
2021/09/25 02:09:31;;;;;;;;;;;;;;;;;;1026123;28;1166;-22
2021/09/25 02:10:02;;;;;;;;;;;;;;;;;;1018501;29;975;-24
2021/09/25 02:10:33;;;;;;;;;;;;;;;;;;1018493;29;1021;-22
2021/09/25 02:11:04;;;;;;;;;;;;;;;;;;1014682;29;1547;-22
2021/09/25 02:11:34;;;;;;;;;;;;;;;;;;1014820;29;1116;-22
2021/09/25 02:12:05;;;;;;;;;;;;;;;;;;1026816;28;1150;-22
2021/09/25 02:12:36;;;;;;;;;;;;;;;;;;1029803;28;1128;-22
2021/09/25 02:13:06;;;;;;;;;;;;;;;;;;1030632;28;995;-22
2021/09/25 02:13:36;;;;;;;;;;;;;;;;;;1030161;28;1441;-24
2021/09/25 02:14:07;;;;;;;;;;;;;;;;;;1027127;28;1421;-24
2021/09/25 02:14:38;;;;;;;;;;;;;;;;;;1026981;28;1002;-22
2021/09/25 02:15:10;;;;;;;;;;;;;;;;;;1027081;28;914;-21
2021/09/25 02:15:41;;;;;;;;;;;;;;;;;;1030404;28;954;-21
2021/09/25 02:16:11;;;;;;;;;;;;;;;;;;1030417;28;959;-23
2021/09/25 02:16:42;;;;;;;;;;;;;;;;;;1034428;28;1095;-21
2021/09/25 02:17:13;;;;;;;;;;;;;;;;;;1034281;28;981;-23
2021/09/25 02:17:43;;;;;;;;;;;;;;;;;;1026406;28;1006;-21
2021/09/25 02:18:14;;;;;;;;;;;;;;;;;;1038494;28;901;-22
2021/09/25 02:18:45;;;;;;;;;;;;;;;;;;1038384;28;1084;-22
2021/09/25 02:19:15;;;;;;;;;;;;;;;;;;1038626;28;1147;-21
2021/09/25 02:19:45;;;;;;;;;;;;;;;;;;1033730;28;2550;-22
2021/09/25 02:20:16;;;;;;;;;;;;;;;;;;1023254;28;1038;-22
2021/09/25 02:20:46;;;;;;;;;;;;;;;;;;1023087;29;925;-21
2021/09/25 02:21:17;;;;;;;;;;;;;;;;;;1034494;28;1078;-22
2021/09/25 02:21:48;;;;;;;;;;;;;;;;;;1034344;28;1056;-22
2021/09/25 02:22:19;;;;;;;;;;;;;;;;;;1030383;28;1093;-22
2021/09/25 02:22:49;;;;;;;;;;;;;;;;;;1030143;28;982;-23
2021/09/25 02:23:19;;;;;;;;;;;;;;;;;;1022594;29;903;-22
2021/09/25 02:23:50;;;;;;;;;;;;;;;;;;1022404;29;971;-21
2021/09/25 02:24:20;;;;;;;;;;;;;;;;;;1025769;28;1319;-21
2021/09/25 02:24:51;;;;;;;;;;;;;;;;;;1031091;28;910;-22
2021/09/25 02:25:21;;;;;;;;;;;;;;;;;;1031098;28;1217;-22
2021/09/25 02:25:52;;;;;;;;;;;;;;;;;;1038343;28;1023;-21
2021/09/25 02:26:22;;;;;;;;;;;;;;;;;;1035963;28;1442;-22
2021/09/25 02:26:53;;;;;;;;;;;;;;;;;;1034318;28;1127;-22
2021/09/25 02:27:23;;;;;;;;;;;;;;;;;;1034668;28;1033;-29
2021/09/25 02:27:53;;;;;;;;;;;;;;;;;;1027092;28;1104;-26
2021/09/25 02:28:24;;;;;;;;;;;;;;;;;;1027087;28;791;-22
2021/09/25 02:28:54;;;;;;;;;;;;;;;;;;1027190;28;1977;-22
2021/09/25 02:29:25;;;;;;;;;;;;;;;;;;1027071;28;811;-22
2021/09/25 02:29:55;;;;;;;;;;;;;;;;;;1027227;28;1013;-21
2021/09/25 02:30:27;;;;;;;;;;;;;;;;;;1026858;28;933;-22
2021/09/25 02:30:58;;;;;;;;;;;;;;;;;;1027051;28;1089;-21
2021/09/25 02:31:28;;;;;;;;;;;;;;;;;;1026989;28;879;-22
2021/09/25 02:31:59;;;;;;;;;;;;;;;;;;1027234;28;886;-21
2021/09/25 02:32:29;;;;;;;;;;;;;;;;;;1026265;28;1062;-21
2021/09/25 02:33:00;;;;;;;;;;;;;;;;;;1026487;28;1286;-22
2021/09/25 02:33:31;;;;;;;;;;;;;;;;;;1026145;28;1093;-25
2021/09/25 02:34:01;;;;;;;;;;;;;;;;;;1026587;28;1296;-22
2021/09/25 02:34:32;;;;;;;;;;;;;;;;;;1026088;28;997;-24
2021/09/25 02:35:03;;;;;;;;;;;;;;;;;;1030335;28;941;-21
2021/09/25 02:35:33;;;;;;;;;;;;;;;;;;1030090;28;1109;-21
2021/09/25 02:36:04;;;;;;;;;;;;;;;;;;1025486;28;3620;-22
2021/09/25 02:36:34;;;;;;;;;;;;;;;;;;1022491;29;803;-24
2021/09/25 02:37:05;;;;;;;;;;;;;;;;;;1023087;28;1149;-28
2021/09/25 02:37:35;;;;;;;;;;;;;;;;;;1023006;28;940;-21
2021/09/25 02:38:06;;;;;;;;;;;;;;;;;;1023134;28;911;-21
2021/09/25 02:38:36;;;;;;;;;;;;;;;;;;1028396;28;3643;-22
2021/09/25 02:39:07;;;;;;;;;;;;;;;;;;1030296;28;1039;-22
2021/09/25 02:39:37;;;;;;;;;;;;;;;;;;1030438;28;1113;-22
2021/09/25 02:40:08;;;;;;;;;;;;;;;;;;1030126;28;1357;-21
2021/09/25 02:40:39;;;;;;;;;;;;;;;;;;1026377;28;1007;-23
2021/09/25 02:41:09;;;;;;;;;;;;;;;;;;1027081;28;850;-22
2021/09/25 02:41:40;;;;;;;;;;;;;;;;;;1034264;28;941;-22
2021/09/25 02:42:10;;;;;;;;;;;;;;;;;;1034455;28;1169;-22
2021/09/25 02:42:42;;;;;;;;;;;;;;;;;;1034217;28;1099;-24
2021/09/25 02:43:12;;;;;;;;;;;;;;;;;;1034289;28;930;-24
2021/09/25 02:43:43;;;;;;;;;;;;;;;;;;1027388;28;1510;-21
2021/09/25 02:44:13;;;;;;;;;;;;;;;;;;1030207;28;1073;-23
2021/09/25 02:44:43;;;;;;;;;;;;;;;;;;1030321;28;2264;-21
2021/09/25 02:45:14;;;;;;;;;;;;;;;;;;1026839;28;985;-23
2021/09/25 02:45:45;;;;;;;;;;;;;;;;;;1027140;28;827;-23
2021/09/25 02:46:16;;;;;;;;;;;;;;;;;;1030367;28;1057;-22
2021/09/25 02:46:49;;;;;;;;;;;;;;;;;;1029846;28;1544;-23
2021/09/25 02:47:19;;;;;;;;;;;;;;;;;;1022202;29;1269;-22
2021/09/25 02:47:50;;;;;;;;;;;;;;;;;;1026003;28;1493;-23
2021/09/25 02:48:20;;;;;;;;;;;;;;;;;;1026488;28;930;-22
2021/09/25 02:48:51;;;;;;;;;;;;;;;;;;1026773;28;1960;-22
2021/09/25 02:49:21;;;;;;;;;;;;;;;;;;1030563;28;1433;-22
2021/09/25 02:49:52;;;;;;;;;;;;;;;;;;1030472;28;1092;-23
2021/09/25 02:50:23;;;;;;;;;;;;;;;;;;1026360;28;1145;-22
2021/09/25 02:50:53;;;;;;;;;;;;;;;;;;1026076;28;1074;-22
2021/09/25 02:51:23;;;;;;;;;;;;;;;;;;1026354;28;1070;-23
2021/09/25 02:51:54;;;;;;;;;;;;;;;;;;1030089;28;997;-22
2021/09/25 02:52:26;;;;;;;;;;;;;;;;;;1031165;28;1139;-21
2021/09/25 02:52:57;;;;;;;;;;;;;;;;;;1031067;28;1515;-21
2021/09/25 02:53:27;;;;;;;;;;;;;;;;;;1029942;28;1107;-22
2021/09/25 02:53:58;;;;;;;;;;;;;;;;;;1030333;28;1036;-23
2021/09/25 02:54:29;;;;;;;;;;;;;;;;;;1025781;28;992;-24
2021/09/25 02:54:59;;;;;;;;;;;;;;;;;;1022400;29;1188;-23
2021/09/25 02:55:30;;;;;;;;;;;;;;;;;;1022120;29;1352;-22
2021/09/25 02:56:00;;;;;;;;;;;;;;;;;;1018331;29;911;-23
2021/09/25 02:56:31;;;;;;;;;;;;;;;;;;1022185;29;986;-23
2021/09/25 02:57:01;;;;;;;;;;;;;;;;;;1030056;28;1317;-22
2021/09/25 02:57:32;;;;;;;;;;;;;;;;;;1030094;28;1209;-25
2021/09/25 02:58:02;;;;;;;;;;;;;;;;;;1034469;28;1058;-24
2021/09/25 02:58:33;;;;;;;;;;;;;;;;;;1034123;28;941;-23
2021/09/25 02:59:03;;;;;;;;;;;;;;;;;;1031103;28;1112;-22
2021/09/25 02:59:34;;;;;;;;;;;;;;;;;;1030907;28;949;-22
2021/09/25 03:00:06;;;;;;;;;;;;;;;;;;1031040;28;921;-22
2021/09/25 03:00:36;;;;;;;;;;;;;;;;;;1031012;28;1054;-22
2021/09/25 03:01:06;;;;;;;;;;;;;;;;;;1024836;28;1058;-23
2021/09/25 03:01:37;;;;;;;;;;;;;;;;;;1022497;29;1052;-24
2021/09/25 03:02:07;;;;;;;;;;;;;;;;;;1022822;29;1045;-22
2021/09/25 03:02:37;;;;;;;;;;;;;;;;;;1022569;29;943;-22
2021/09/25 03:03:08;;;;;;;;;;;;;;;;;;1023149;28;938;-26
2021/09/25 03:03:38;;;;;;;;;;;;;;;;;;1022887;29;928;-22
2021/09/25 03:04:08;;;;;;;;;;;;;;;;;;1022842;29;889;-22
2021/09/25 03:04:39;;;;;;;;;;;;;;;;;;1022928;29;1029;-23
2021/09/25 03:05:09;;;;;;;;;;;;;;;;;;1022989;29;1052;-21
2021/09/25 03:05:40;;;;;;;;;;;;;;;;;;1022862;28;923;-22
2021/09/25 03:06:10;;;;;;;;;;;;;;;;;;1023010;29;1021;-22
2021/09/25 03:06:41;;;;;;;;;;;;;;;;;;1034181;28;963;-23
2021/09/25 03:07:11;;;;;;;;;;;;;;;;;;1030355;28;986;-21
2021/09/25 03:07:42;;;;;;;;;;;;;;;;;;1030070;28;1164;-22
2021/09/25 03:08:13;;;;;;;;;;;;;;;;;;1030338;28;910;-26
2021/09/25 03:08:44;;;;;;;;;;;;;;;;;;1034011;28;1910;-22
2021/09/25 03:09:14;;;;;;;;;;;;;;;;;;1022333;29;1093;-25
2021/09/25 03:09:45;;;;;;;;;;;;;;;;;;1022185;29;1085;-23
2021/09/25 03:10:15;;;;;;;;;;;;;;;;;;1022240;29;962;-28
2021/09/25 03:10:46;;;;;;;;;;;;;;;;;;1018155;28;883;-22
2021/09/25 03:11:17;;;;;;;;;;;;;;;;;;1022297;29;1041;-23
2021/09/25 03:11:47;;;;;;;;;;;;;;;;;;1017985;28;955;-25
2021/09/25 03:12:18;;;;;;;;;;;;;;;;;;1019128;29;1186;-24
2021/09/25 03:12:48;;;;;;;;;;;;;;;;;;1021904;28;1123;-22
2021/09/25 03:13:19;;;;;;;;;;;;;;;;;;1026730;28;907;-22
2021/09/25 03:13:50;;;;;;;;;;;;;;;;;;1026933;28;891;-23
2021/09/25 03:14:21;;;;;;;;;;;;;;;;;;1025846;28;1499;-22
2021/09/25 03:14:51;;;;;;;;;;;;;;;;;;1025870;28;1080;-21
2021/09/25 03:15:21;;;;;;;;;;;;;;;;;;1026340;28;1102;-23
2021/09/25 03:15:52;;;;;;;;;;;;;;;;;;1025906;28;2749;-22
2021/09/25 03:16:22;;;;;;;;;;;;;;;;;;1027067;28;1040;-23
2021/09/25 03:16:53;;;;;;;;;;;;;;;;;;1026659;28;966;-22
2021/09/25 03:17:24;;;;;;;;;;;;;;;;;;1030150;28;1000;-24
2021/09/25 03:17:54;;;;;;;;;;;;;;;;;;1030254;28;1109;-21
2021/09/25 03:18:25;;;;;;;;;;;;;;;;;;1025693;28;938;-23
2021/09/25 03:18:56;;;;;;;;;;;;;;;;;;1026249;28;1025;-23
2021/09/25 03:19:26;;;;;;;;;;;;;;;;;;1026034;28;1232;-22
2021/09/25 03:19:56;;;;;;;;;;;;;;;;;;1026315;28;1462;-22
2021/09/25 03:20:27;;;;;;;;;;;;;;;;;;1030197;28;830;-23
2021/09/25 03:20:58;;;;;;;;;;;;;;;;;;1026157;28;1133;-22
2021/09/25 03:21:28;;;;;;;;;;;;;;;;;;1026023;28;1389;-22
2021/09/25 03:21:59;;;;;;;;;;;;;;;;;;1026217;28;913;-22
2021/09/25 03:22:29;;;;;;;;;;;;;;;;;;1025977;28;949;-23
2021/09/25 03:22:59;;;;;;;;;;;;;;;;;;1027095;28;989;-22
2021/09/25 03:23:30;;;;;;;;;;;;;;;;;;1026039;28;1185;-24
2021/09/25 03:24:00;;;;;;;;;;;;;;;;;;1026289;28;1045;-21
2021/09/25 03:24:31;;;;;;;;;;;;;;;;;;1021887;29;1260;-24
2021/09/25 03:25:07;;;;;;;;;;;;;;;;;;1022040;28;1504;-22
2021/09/25 03:25:37;;;;;;;;;;;;;;;;;;1022129;29;1426;-23
2021/09/25 03:26:08;;;;;;;;;;;;;;;;;;1014435;29;1508;-23
2021/09/25 03:26:38;;;;;;;;;;;;;;;;;;1017913;29;1313;-21
2021/09/25 03:27:09;;;;;;;;;;;;;;;;;;1018202;29;1097;-22
2021/09/25 03:27:40;;;;;;;;;;;;;;;;;;1021908;28;1113;-22
2021/09/25 03:28:11;;;;;;;;;;;;;;;;;;1026389;28;1073;-23
2021/09/25 03:28:42;;;;;;;;;;;;;;;;;;1030126;28;1918;-22
2021/09/25 03:29:13;;;;;;;;;;;;;;;;;;1030021;28;873;-21
2021/09/25 03:29:43;;;;;;;;;;;;;;;;;;1026839;28;934;-23
2021/09/25 03:30:13;;;;;;;;;;;;;;;;;;1026680;28;1087;-22
2021/09/25 03:30:44;;;;;;;;;;;;;;;;;;1026855;28;1050;-23
2021/09/25 03:31:15;;;;;;;;;;;;;;;;;;1026958;28;951;-24
2021/09/25 03:31:45;;;;;;;;;;;;;;;;;;1029891;28;893;-23
2021/09/25 03:32:15;;;;;;;;;;;;;;;;;;1030243;28;1020;-22
2021/09/25 03:32:46;;;;;;;;;;;;;;;;;;1030055;28;1704;-23
2021/09/25 03:33:17;;;;;;;;;;;;;;;;;;1026244;28;1087;-22
2021/09/25 03:33:48;;;;;;;;;;;;;;;;;;1021985;29;1088;-22
2021/09/25 03:34:18;;;;;;;;;;;;;;;;;;1021909;29;1042;-22